Time;durP1;ratioP1;P1;durP2;ratioP2;P2;SDS_P1;SDS_P2;PMS_P1;PMS_P2;Temp;Humidity;BMP_temperature;BMP_pressure;BME280_temperature;BME280_humidity;BME280_pressure;Samples;Min_cycle;Max_cycle;Signal;HPM_P1;HPM_P2
2022/06/04 00:02:11;;;;;;;7.38;5.65;;;14.90;92.90;;;;;;5054286;28;20029;-69
2022/06/04 00:04:36;;;;;;;9.43;5.50;;;14.90;92.70;;;;;;5051093;28;20074;-69
2022/06/04 00:07:02;;;;;;;8.88;5.45;;;14.90;92.60;;;;;;5056484;28;20081;-68
2022/06/04 00:09:28;;;;;;;7.55;5.53;;;14.80;92.60;;;;;;5053616;28;20024;-68
2022/06/04 00:17:25;;;;;;;6.82;5.22;;;14.90;92.60;;;;;;5051069;28;20086;-68
2022/06/04 00:19:52;;;;;;;8.73;6.00;;;14.90;92.60;;;;;;5049810;28;20035;-69
2022/06/04 00:22:18;;;;;;;10.25;5.95;;;14.80;92.30;;;;;;5054108;28;20029;-69
2022/06/04 00:24:45;;;;;;;6.45;5.28;;;14.80;92.40;;;;;;5053728;28;20060;-68
2022/06/04 00:27:17;;;;;;;7.28;5.55;;;14.80;92.20;;;;;;5054918;28;20029;-68
2022/06/04 00:29:43;;;;;;;10.93;5.40;;;14.80;91.90;;;;;;5051560;28;20519;-68
2022/06/04 00:32:09;;;;;;;9.68;5.25;;;14.80;92.20;;;;;;5051781;28;20033;-68
2022/06/04 00:34:35;;;;;;;9.00;5.22;;;14.70;92.30;;;;;;5053451;28;20043;-68
2022/06/04 00:37:01;;;;;;;8.35;5.55;;;14.70;92.30;;;;;;5055559;28;20100;-68
2022/06/04 00:39:28;;;;;;;7.68;5.00;;;14.70;92.50;;;;;;5054503;28;20097;-69
2022/06/04 00:42:12;;;;;;;6.85;5.07;;;14.70;92.50;;;;;;5051189;28;20091;-68
2022/06/04 00:45:16;;;;;;;6.72;5.00;;;14.60;92.50;;;;;;5054274;28;20357;-68
2022/06/04 00:47:47;;;;;;;8.32;5.40;;;14.60;92.40;;;;;;5055948;28;20143;-68
2022/06/04 00:50:15;;;;;;;8.98;5.18;;;14.50;92.00;;;;;;5047522;28;20017;-68
2022/06/04 00:52:41;;;;;;;9.13;5.35;;;14.50;91.80;;;;;;5053990;28;20025;-68
2022/06/04 00:55:09;;;;;;;8.35;4.90;;;14.50;92.00;;;;;;5053886;28;20025;-69
2022/06/04 00:57:53;;;;;;;6.55;4.47;;;14.50;92.10;;;;;;5052796;28;20326;-69
2022/06/04 01:00:42;;;;;;;10.80;5.47;;;14.50;92.10;;;;;;5049562;28;20021;-68
2022/06/04 01:03:11;;;;;;;6.60;4.72;;;14.40;91.90;;;;;;5052836;28;20029;-68
2022/06/04 01:06:08;;;;;;;8.85;5.13;;;14.50;91.80;;;;;;5056177;28;20074;-68
2022/06/04 01:08:55;;;;;;;7.30;5.18;;;14.50;91.60;;;;;;5054014;28;20719;-68
2022/06/04 01:11:26;;;;;;;6.80;5.10;;;14.50;91.70;;;;;;5052512;28;20046;-68
2022/06/04 01:14:27;;;;;;;7.55;4.80;;;14.50;91.80;;;;;;5051920;28;20033;-68
2022/06/04 01:17:04;;;;;;;8.40;5.03;;;14.50;91.70;;;;;;5049867;28;20033;-68
2022/06/04 01:20:14;;;;;;;6.07;4.72;;;14.50;91.80;;;;;;5051403;28;20025;-68
2022/06/04 01:22:41;;;;;;;6.45;5.05;;;14.50;91.90;;;;;;5056133;28;20036;-68
2022/06/04 01:25:41;;;;;;;6.50;4.65;;;14.50;92.20;;;;;;5052849;28;20052;-69
2022/06/04 01:28:10;;;;;;;6.88;4.90;;;14.50;92.00;;;;;;5051577;28;20087;-68
2022/06/04 01:30:43;;;;;;;6.65;5.40;;;14.50;92.00;;;;;;5051565;28;20488;-68
2022/06/04 01:33:45;;;;;;;8.40;5.57;;;14.50;91.90;;;;;;5049579;28;20115;-68
2022/06/04 01:36:17;;;;;;;7.45;5.18;;;14.50;91.50;;;;;;5045395;28;20115;-68
2022/06/04 01:39:07;;;;;;;7.95;5.38;;;14.50;91.70;;;;;;5053192;28;20032;-68
2022/06/04 01:41:50;;;;;;;9.52;5.22;;;14.50;91.50;;;;;;5052569;28;20382;-68
2022/06/04 01:44:34;;;;;;;6.55;5.10;;;14.40;91.30;;;;;;5046725;28;20244;-68
2022/06/04 01:47:04;;;;;;;7.00;4.90;;;14.40;91.50;;;;;;5051192;28;20306;-68
2022/06/04 01:49:53;;;;;;;8.02;5.07;;;14.40;91.80;;;;;;5052413;28;20043;-68
2022/06/04 01:52:40;;;;;;;8.45;5.57;;;14.40;91.50;;;;;;5052405;28;20028;-68
2022/06/04 01:55:23;;;;;;;8.32;5.57;;;14.40;91.20;;;;;;5052080;28;20111;-68
2022/06/04 01:58:09;;;;;;;9.47;5.40;;;14.40;91.00;;;;;;5051958;28;20435;-68
2022/06/04 02:00:45;;;;;;;7.80;5.18;;;14.40;91.20;;;;;;5053099;28;20329;-68
2022/06/04 02:03:20;;;;;;;6.57;4.90;;;14.40;91.50;;;;;;5052981;28;20075;-69
2022/06/04 02:06:15;;;;;;;7.78;4.60;;;14.40;91.40;;;;;;5048310;28;20029;-69
2022/06/04 02:08:54;;;;;;;10.65;5.50;;;14.50;91.70;;;;;;5031590;28;20059;-68
2022/06/04 02:11:23;;;;;;;6.25;4.32;;;14.50;92.20;;;;;;5053689;28;20060;-68
2022/06/04 02:13:53;;;;;;;7.53;5.32;;;14.40;92.10;;;;;;5048535;28;20033;-68
2022/06/04 02:16:31;;;;;;;10.38;4.95;;;14.30;91.80;;;;;;5051410;28;20477;-68
2022/06/04 02:18:58;;;;;;;9.25;5.60;;;14.30;91.50;;;;;;5051886;28;20025;-68
2022/06/04 02:21:25;;;;;;;6.65;5.15;;;14.30;91.50;;;;;;5046148;28;20032;-68
2022/06/04 02:23:51;;;;;;;8.45;5.13;;;14.30;91.20;;;;;;5051261;28;20025;-68
2022/06/04 02:26:22;;;;;;;6.97;5.13;;;14.30;91.20;;;;;;5052820;28;20029;-68
2022/06/04 02:28:49;;;;;;;8.80;5.25;;;14.30;91.50;;;;;;5050373;28;20078;-68
2022/06/04 02:31:29;;;;;;;8.27;4.90;;;14.30;91.80;;;;;;5052369;28;20028;-68
2022/06/04 02:34:10;;;;;;;8.00;5.50;;;14.30;91.80;;;;;;5043846;28;20079;-68
2022/06/04 02:37:01;;;;;;;10.32;6.20;;;14.30;91.60;;;;;;5051976;28;20067;-70
2022/06/04 02:39:33;;;;;;;8.00;5.72;;;14.30;91.70;;;;;;5047080;28;20044;-69
2022/06/04 02:42:13;;;;;;;7.80;4.90;;;14.20;91.60;;;;;;5051892;28;20020;-68
2022/06/04 02:44:53;;;;;;;7.50;4.65;;;14.20;91.50;;;;;;5035074;28;20023;-68
2022/06/04 02:47:24;;;;;;;6.85;4.80;;;14.20;91.30;;;;;;5048657;28;20032;-69
2022/06/04 02:50:08;;;;;;;8.93;5.07;;;14.20;91.50;;;;;;5052806;28;20028;-69
2022/06/04 02:52:35;;;;;;;9.38;5.07;;;14.20;91.60;;;;;;5050142;28;20033;-69
2022/06/04 02:55:10;;;;;;;7.95;5.22;;;14.10;91.30;;;;;;5052576;28;20025;-68
2022/06/04 02:57:42;;;;;;;7.13;4.57;;;14.10;91.10;;;;;;5050484;28;20246;-69
2022/06/04 03:00:10;;;;;;;7.03;5.05;;;14.10;90.90;;;;;;5052124;28;20325;-68
2022/06/04 03:02:37;;;;;;;9.80;5.22;;;14.10;91.00;;;;;;5049666;28;20030;-68
2022/06/04 03:05:12;;;;;;;9.93;5.13;;;14.10;91.00;;;;;;5050440;28;20235;-69
2022/06/04 03:07:46;;;;;;;9.05;5.18;;;14.10;91.40;;;;;;5050652;28;20036;-69
2022/06/04 03:10:40;;;;;;;9.63;4.53;;;14.20;91.80;;;;;;5051034;28;20032;-68
2022/06/04 03:13:06;;;;;;;7.25;4.28;;;14.30;92.10;;;;;;5039304;28;20094;-68
2022/06/04 03:15:31;;;;;;;7.43;4.85;;;14.40;92.80;;;;;;5039029;28;20100;-68
2022/06/04 03:17:57;;;;;;;8.57;4.20;;;14.50;93.60;;;;;;5052279;28;20694;-69
2022/06/04 03:20:26;;;;;;;8.27;4.10;;;14.50;93.80;;;;;;5051323;28;20053;-68
2022/06/04 03:22:53;;;;;;;6.50;4.32;;;14.50;93.60;;;;;;5052952;28;20021;-68
2022/06/04 03:25:19;;;;;;;6.85;4.50;;;14.50;93.60;;;;;;5051578;28;20078;-68
2022/06/04 03:27:46;;;;;;;8.82;4.15;;;14.50;93.80;;;;;;5048679;28;20076;-68
2022/06/04 03:30:13;;;;;;;6.05;3.92;;;14.60;94.10;;;;;;5049854;28;20325;-68
2022/06/04 03:32:41;;;;;;;7.10;4.00;;;14.70;94.10;;;;;;5051495;28;20032;-68
2022/06/04 03:35:10;;;;;;;8.13;4.05;;;14.80;94.40;;;;;;5051415;28;20104;-69
2022/06/04 03:37:36;;;;;;;6.72;3.50;;;14.90;94.80;;;;;;5047171;28;20021;-69
2022/06/04 03:40:04;;;;;;;6.72;3.50;;;15.00;94.70;;;;;;5049495;28;20044;-68
2022/06/04 03:42:30;;;;;;;6.03;4.05;;;15.00;94.80;;;;;;5050408;28;20108;-69
2022/06/04 03:44:56;;;;;;;6.63;3.92;;;15.10;95.10;;;;;;5051653;28;20029;-68
2022/06/04 03:47:22;;;;;;;6.03;3.50;;;15.20;95.30;;;;;;5052674;28;20052;-69
2022/06/04 03:49:48;;;;;;;6.43;3.45;;;15.30;95.60;;;;;;5053969;28;20029;-68
2022/06/04 03:52:15;;;;;;;6.63;3.70;;;15.30;95.90;;;;;;5055983;28;20033;-68
2022/06/04 03:54:53;;;;;;;5.28;3.67;;;15.30;96.10;;;;;;5055074;28;20029;-68
2022/06/04 03:57:45;;;;;;;8.85;3.50;;;15.30;95.70;;;;;;5056223;28;20048;-69
2022/06/04 04:00:35;;;;;;;7.50;4.10;;;15.30;95.40;;;;;;5051365;28;20318;-68
2022/06/04 04:03:12;;;;;;;6.80;4.20;;;15.30;95.80;;;;;;5055846;28;20425;-69
2022/06/04 04:05:44;;;;;;;7.32;3.90;;;15.30;95.50;;;;;;5051340;28;20095;-68
2022/06/04 04:08:10;;;;;;;6.25;3.78;;;15.30;95.50;;;;;;5055746;28;20446;-69
2022/06/04 04:10:39;;;;;;;6.45;4.03;;;15.30;95.60;;;;;;5054130;28;20054;-68
2022/06/04 04:13:07;;;;;;;7.68;3.78;;;15.40;95.60;;;;;;5053252;28;20668;-68
2022/06/04 04:15:33;;;;;;;8.68;4.50;;;15.40;95.70;;;;;;5053562;28;20040;-68
2022/06/04 04:17:59;;;;;;;6.35;3.55;;;15.50;96.00;;;;;;5035997;28;20474;-68
2022/06/04 04:20:28;;;;;;;8.07;4.25;;;15.60;96.00;;;;;;5054241;28;20017;-68
2022/06/04 04:22:55;;;;;;;7.85;3.70;;;15.70;96.10;;;;;;5054483;28;20032;-68
2022/06/04 04:25:24;;;;;;;7.57;3.30;;;15.90;97.20;;;;;;5052290;28;20029;-69
2022/06/04 04:27:50;;;;;;;8.75;3.50;;;16.30;98.00;;;;;;5054533;28;20448;-68
2022/06/04 04:30:20;;;;;;;9.35;3.22;;;16.70;98.00;;;;;;5051118;28;20037;-68
2022/06/04 04:32:50;;;;;;;6.43;2.95;;;17.20;97.40;;;;;;5054279;28;20456;-68
2022/06/04 04:35:20;;;;;;;4.85;2.80;;;17.40;97.30;;;;;;5053527;28;20033;-68
2022/06/04 04:37:46;;;;;;;8.85;3.00;;;17.60;97.30;;;;;;5054681;28;20028;-69
2022/06/04 04:40:14;;;;;;;5.70;2.97;;;17.70;97.10;;;;;;5052066;28;20374;-69
2022/06/04 04:42:41;;;;;;;6.07;2.72;;;17.80;96.70;;;;;;5051489;28;20025;-68
2022/06/04 04:45:07;;;;;;;7.63;3.10;;;18.00;96.30;;;;;;5052043;28;20342;-68
2022/06/04 04:47:39;;;;;;;5.43;2.90;;;18.20;96.10;;;;;;5054868;28;20036;-68
2022/06/04 04:50:08;;;;;;;6.22;2.70;;;18.30;96.30;;;;;;5053785;28;20052;-68
2022/06/04 04:52:34;;;;;;;5.43;2.90;;;18.20;96.20;;;;;;5047933;28;20034;-69
2022/06/04 04:55:00;;;;;;;6.07;3.15;;;18.20;96.40;;;;;;5048076;28;20329;-68
2022/06/04 04:57:26;;;;;;;7.18;2.92;;;18.30;96.10;;;;;;5051721;28;20029;-68
2022/06/04 04:59:52;;;;;;;8.65;3.03;;;18.30;96.20;;;;;;5052879;28;20056;-68
2022/06/04 05:02:18;;;;;;;6.88;3.05;;;18.30;96.00;;;;;;5052800;28;20033;-68
2022/06/04 05:04:44;;;;;;;6.07;3.03;;;18.30;95.90;;;;;;5047710;28;20061;-68
2022/06/04 05:07:12;;;;;;;8.77;3.47;;;18.40;95.90;;;;;;5045684;28;20045;-68
2022/06/04 05:09:39;;;;;;;6.35;3.63;;;18.30;95.80;;;;;;5054902;28;20051;-69
2022/06/04 05:12:08;;;;;;;7.60;3.80;;;18.10;96.30;;;;;;5049838;28;20117;-68
2022/06/04 05:14:38;;;;;;;7.28;3.95;;;17.80;96.70;;;;;;5052765;28;20426;-68
2022/06/04 05:17:06;;;;;;;10.40;5.53;;;17.60;96.80;;;;;;5046177;28;20530;-68
2022/06/04 05:19:34;;;;;;;6.97;4.82;;;17.20;96.90;;;;;;5052511;28;20025;-68
2022/06/04 05:22:00;;;;;;;7.60;4.95;;;16.90;97.00;;;;;;5048802;28;20117;-68
2022/06/04 05:24:29;;;;;;;7.43;5.15;;;16.70;96.70;;;;;;5050575;28;20040;-68
2022/06/04 05:26:56;;;;;;;9.75;5.85;;;16.60;96.80;;;;;;5048804;28;20299;-68
2022/06/04 05:29:22;;;;;;;12.30;6.00;;;16.50;96.80;;;;;;5053025;28;20162;-67
2022/06/04 05:31:49;;;;;;;8.07;4.85;;;16.50;96.60;;;;;;5049792;28;20113;-70
2022/06/04 05:34:17;;;;;;;9.68;5.10;;;16.70;96.90;;;;;;5039218;28;20242;-69
2022/06/04 05:36:44;;;;;;;6.65;4.50;;;17.10;97.50;;;;;;5046131;28;20032;-69
2022/06/04 05:39:11;;;;;;;9.70;4.85;;;17.20;97.50;;;;;;5039817;28;20030;-69
2022/06/04 05:41:37;;;;;;;10.43;4.57;;;17.20;97.30;;;;;;5045445;28;20047;-68
2022/06/04 05:44:04;;;;;;;6.53;3.80;;;17.20;97.50;;;;;;5050619;28;20434;-68
2022/06/04 05:46:30;;;;;;;10.02;4.25;;;17.30;97.40;;;;;;5054136;28;20039;-68
2022/06/04 05:48:56;;;;;;;10.60;4.30;;;17.70;96.90;;;;;;5050787;28;20037;-68
2022/06/04 05:51:25;;;;;;;8.93;4.07;;;18.00;96.40;;;;;;5051418;28;20021;-68
2022/06/04 05:53:52;;;;;;;8.63;3.83;;;18.10;96.10;;;;;;5052891;28;20060;-68
2022/06/04 05:56:24;;;;;;;9.20;4.32;;;18.20;96.00;;;;;;5049043;28;20028;-68
2022/06/04 05:58:52;;;;;;;10.05;4.22;;;18.10;96.30;;;;;;5048644;28;20082;-68
2022/06/04 06:01:21;;;;;;;6.13;3.92;;;17.90;96.60;;;;;;5032417;28;20033;-68
2022/06/04 06:03:47;;;;;;;7.35;3.83;;;17.80;96.90;;;;;;5048462;28;20090;-68
2022/06/04 06:06:16;;;;;;;6.72;3.55;;;17.60;97.00;;;;;;5050313;28;20511;-68
2022/06/04 06:08:42;;;;;;;9.27;4.15;;;17.60;97.20;;;;;;5048626;28;20031;-68
2022/06/04 06:11:11;;;;;;;7.05;3.78;;;17.50;96.80;;;;;;5049840;28;20033;-68
2022/06/04 06:13:42;;;;;;;7.20;3.42;;;17.40;96.90;;;;;;5050806;28;20060;-68
2022/06/04 06:16:14;;;;;;;9.02;4.07;;;17.20;97.30;;;;;;5050704;28;20021;-68
2022/06/04 06:18:40;;;;;;;5.38;3.83;;;17.10;96.90;;;;;;5047769;28;20021;-68
2022/06/04 06:21:08;;;;;;;7.07;3.72;;;17.00;97.00;;;;;;5042954;28;20314;-68
2022/06/04 06:23:35;;;;;;;7.05;4.20;;;16.90;96.90;;;;;;5047329;28;20388;-68
2022/06/04 06:26:25;;;;;;;6.32;3.70;;;16.90;96.10;;;;;;5043329;28;20021;-69
2022/06/04 06:28:52;;;;;;;5.32;3.22;;;16.80;96.00;;;;;;5041601;28;20033;-69
2022/06/04 06:31:24;;;;;;;8.55;3.40;;;16.60;96.20;;;;;;5025437;28;20048;-69
2022/06/04 06:33:51;;;;;;;9.80;4.13;;;16.50;96.10;;;;;;5032229;28;20123;-68
2022/06/04 06:36:19;;;;;;;5.47;2.90;;;16.40;94.90;;;;;;5030049;28;20025;-69
2022/06/04 06:38:47;;;;;;;5.78;3.17;;;16.30;95.60;;;;;;5029772;28;20029;-69
2022/06/04 06:41:16;;;;;;;6.25;3.53;;;16.20;94.60;;;;;;5034658;28;20041;-69
2022/06/04 06:43:46;;;;;;;4.97;3.10;;;16.20;93.20;;;;;;5028525;28;20135;-69
2022/06/04 06:46:36;;;;;;;5.05;3.05;;;16.20;93.50;;;;;;5033824;28;20052;-69
2022/06/04 06:49:21;;;;;;;9.88;3.50;;;16.20;93.20;;;;;;5044201;28;20120;-69
2022/06/04 06:51:50;;;;;;;4.95;2.80;;;16.20;92.60;;;;;;5043593;28;20044;-69
2022/06/04 06:54:18;;;;;;;5.68;2.75;;;16.30;92.60;;;;;;5051853;28;20036;-70
2022/06/04 06:56:46;;;;;;;3.65;2.25;;;16.40;92.90;;;;;;5041846;28;20025;-68
2022/06/04 06:59:14;;;;;;;6.80;2.30;;;16.60;92.80;;;;;;5044120;28;20045;-68
2022/06/04 07:01:42;;;;;;;4.60;2.28;;;16.70;94.20;;;;;;5047220;28;20317;-70
2022/06/04 07:04:09;;;;;;;4.45;2.00;;;16.70;95.90;;;;;;5046352;28;20021;-69
2022/06/04 07:06:38;;;;;;;4.03;1.60;;;16.90;96.90;;;;;;5051853;28;20045;-69
2022/06/04 07:09:07;;;;;;;2.92;1.60;;;16.90;97.20;;;;;;5051750;28;20113;-69
2022/06/04 07:11:33;;;;;;;4.55;1.98;;;17.00;98.00;;;;;;5049915;28;20034;-69
2022/06/04 07:14:00;;;;;;;4.50;2.08;;;17.10;97.10;;;;;;5045693;28;20290;-69
2022/06/04 07:16:25;;;;;;;4.95;2.75;;;17.20;97.50;;;;;;5051434;28;20116;-69
2022/06/04 07:18:51;;;;;;;5.75;2.50;;;17.20;97.10;;;;;;5040559;28;21906;-69
2022/06/04 07:21:19;;;;;;;7.22;2.63;;;17.20;97.10;;;;;;5050309;28;20425;-69
2022/06/04 07:23:45;;;;;;;6.50;3.00;;;17.20;96.70;;;;;;5053172;28;20055;-69
2022/06/04 07:26:12;;;;;;;7.03;4.50;;;17.30;96.10;;;;;;5054806;28;21678;-69
2022/06/04 07:28:39;;;;;;;7.95;4.88;;;17.40;95.10;;;;;;5053200;28;20021;-69
2022/06/04 07:31:09;;;;;;;8.85;5.50;;;17.20;94.80;;;;;;5045875;28;20036;-69
2022/06/04 07:33:36;;;;;;;8.10;4.65;;;17.20;94.20;;;;;;5053144;28;20033;-69
2022/06/04 07:36:02;;;;;;;6.95;4.45;;;17.40;93.70;;;;;;5049634;28;20021;-69
2022/06/04 07:38:29;;;;;;;7.15;5.00;;;17.60;94.20;;;;;;5055394;28;20027;-69
2022/06/04 07:40:56;;;;;;;8.60;4.95;;;17.60;95.40;;;;;;5054902;28;20049;-69
2022/06/04 07:43:23;;;;;;;10.80;5.68;;;17.70;96.00;;;;;;5051374;28;20043;-69
2022/06/04 07:45:48;;;;;;;10.43;5.65;;;17.70;96.40;;;;;;5052742;28;20103;-67
2022/06/04 07:48:14;;;;;;;6.88;4.47;;;17.80;96.90;;;;;;5057343;28;20057;-68
2022/06/04 07:50:40;;;;;;;8.25;4.38;;;18.00;96.60;;;;;;5055859;28;20017;-69
2022/06/04 07:53:06;;;;;;;8.68;4.65;;;18.40;96.80;;;;;;5055433;28;20079;-68
2022/06/04 07:55:33;;;;;;;7.47;4.25;;;19.40;97.20;;;;;;5053143;28;20116;-68
2022/06/04 07:57:59;;;;;;;8.15;4.40;;;20.30;96.60;;;;;;5047964;28;20114;-69
2022/06/04 08:00:25;;;;;;;8.20;4.05;;;20.40;94.80;;;;;;5049388;28;20044;-69
2022/06/04 08:02:53;;;;;;;8.30;4.28;;;20.10;95.30;;;;;;5051209;28;20017;-67
2022/06/04 08:05:20;;;;;;;9.00;4.43;;;19.70;96.20;;;;;;5051296;28;20116;-69
2022/06/04 08:07:46;;;;;;;7.97;4.22;;;19.30;96.70;;;;;;5050543;28;20037;-68
2022/06/04 08:10:14;;;;;;;7.00;4.38;;;19.50;96.80;;;;;;5052230;28;20430;-69
2022/06/04 08:12:58;;;;;;;10.70;4.55;;;19.90;96.60;;;;;;5053429;28;20033;-68
2022/06/04 08:15:24;;;;;;;8.98;3.70;;;20.90;95.60;;;;;;5055124;28;20373;-68
2022/06/04 08:17:50;;;;;;;10.27;3.85;;;21.60;93.20;;;;;;5053705;28;20118;-68
2022/06/04 08:20:18;;;;;;;6.25;3.20;;;21.90;92.30;;;;;;5054958;28;20055;-68
2022/06/04 08:22:45;;;;;;;7.13;3.65;;;21.70;90.80;;;;;;5056265;28;20082;-68
2022/06/04 08:25:13;;;;;;;10.32;4.13;;;22.00;91.20;;;;;;5050546;28;20041;-68
2022/06/04 08:27:41;;;;;;;5.68;2.72;;;23.00;89.60;;;;;;5048589;28;20064;-68
2022/06/04 08:30:07;;;;;;;7.97;2.80;;;24.50;86.20;;;;;;5053034;28;20489;-70
2022/06/04 08:32:33;;;;;;;6.25;2.55;;;25.20;84.30;;;;;;5056635;28;20444;-70
2022/06/04 08:34:58;;;;;;;4.65;1.90;;;26.60;79.20;;;;;;5052917;28;20029;-69
2022/06/04 08:37:24;;;;;;;4.88;2.10;;;27.50;73.80;;;;;;5054117;28;20056;-69
2022/06/04 08:39:49;;;;;;;4.82;1.70;;;27.60;74.10;;;;;;5056575;28;20048;-70
2022/06/04 08:42:51;;;;;;;5.00;2.70;;;27.90;71.80;;;;;;5053998;28;20468;-69
2022/06/04 08:45:16;;;;;;;3.90;2.00;;;27.90;72.60;;;;;;5055404;28;20021;-69
2022/06/04 08:47:51;;;;;;;6.00;2.20;;;27.30;72.60;;;;;;5056378;28;20033;-69
2022/06/04 08:50:22;;;;;;;4.35;1.85;;;25.90;76.50;;;;;;5057963;28;20032;-69
2022/06/04 08:52:52;;;;;;;5.70;1.98;;;24.70;77.60;;;;;;5056058;28;20032;-69
2022/06/04 08:59:08;;;;;;;23.17;2.70;;;23.30;84.10;;;;;;5055517;28;20118;-68
2022/06/04 09:01:35;;;;;;;7.30;3.00;;;22.70;84.80;;;;;;5057761;28;20394;-69
2022/06/04 09:04:10;;;;;;;4.50;2.40;;;22.40;87.90;;;;;;5057493;28;20087;-68
2022/06/04 09:06:47;;;;;;;5.32;2.95;;;22.20;87.70;;;;;;5056642;28;20033;-68
2022/06/04 09:09:33;;;;;;;5.00;2.60;;;22.20;89.30;;;;;;5057646;28;20311;-69
2022/06/04 09:12:08;;;;;;;6.10;1.95;;;23.50;87.50;;;;;;5057001;28;20410;-69
2022/06/04 09:14:41;;;;;;;2.75;1.33;;;25.60;77.00;;;;;;5057263;28;20024;-68
2022/06/04 09:17:36;;;;;;;2.80;1.27;;;27.40;72.20;;;;;;5057460;28;20021;-68
2022/06/04 09:20:09;;;;;;;3.50;1.60;;;29.30;66.80;;;;;;5057368;28;20456;-68
2022/06/04 09:22:38;;;;;;;4.82;2.00;;;29.90;66.10;;;;;;5054917;28;20440;-69
2022/06/04 09:25:04;;;;;;;4.07;1.63;;;29.90;64.80;;;;;;5056689;28;20025;-69
2022/06/04 09:27:43;;;;;;;2.70;1.27;;;29.50;64.50;;;;;;5055561;28;20053;-68
2022/06/04 09:30:18;;;;;;;3.47;1.70;;;29.20;65.10;;;;;;5057041;28;20033;-68
2022/06/04 09:33:07;;;;;;;4.20;1.20;;;29.90;65.70;;;;;;5057061;28;20028;-68
2022/06/04 09:35:41;;;;;;;3.85;1.48;;;30.30;62.50;;;;;;5056912;28;20029;-68
2022/06/04 09:38:25;;;;;;;9.38;1.50;;;30.20;63.40;;;;;;5056018;28;20099;-68
2022/06/04 09:41:03;;;;;;;4.20;1.73;;;30.10;62.50;;;;;;5056671;28;20060;-68
2022/06/04 09:43:29;;;;;;;3.65;1.50;;;29.00;63.20;;;;;;5055640;28;20051;-68
2022/06/04 09:45:59;;;;;;;6.47;2.10;;;27.40;67.90;;;;;;5056826;28;20115;-68
2022/06/04 09:48:29;;;;;;;5.93;2.50;;;26.60;72.60;;;;;;5056932;28;20062;-68
2022/06/04 09:51:14;;;;;;;4.47;2.17;;;26.00;76.60;;;;;;5056697;28;20025;-68
2022/06/04 09:53:46;;;;;;;5.72;2.40;;;25.80;79.10;;;;;;5055193;28;20487;-68
2022/06/04 09:56:16;;;;;;;5.43;2.42;;;26.00;80.90;;;;;;5056578;28;20368;-69
2022/06/04 09:58:46;;;;;;;5.10;2.35;;;26.70;78.10;;;;;;5055268;28;20021;-68
2022/06/04 10:01:14;;;;;;;4.03;2.00;;;26.80;76.90;;;;;;5056681;28;20021;-68
2022/06/04 10:03:41;;;;;;;5.28;1.90;;;26.30;76.80;;;;;;5056363;28;20064;-68
2022/06/04 10:06:26;;;;;;;4.25;2.35;;;26.00;75.40;;;;;;5056413;28;20128;-68
2022/06/04 10:11:52;;;;;;;3.42;1.70;;;26.30;74.70;;;;;;5056737;28;20437;-68
2022/06/04 10:14:28;;;;;;;3.53;1.40;;;26.90;72.70;;;;;;5054869;28;20036;-68
2022/06/04 10:16:54;;;;;;;4.00;1.48;;;27.90;68.00;;;;;;5056394;28;20134;-68
2022/06/04 10:19:22;;;;;;;3.60;1.70;;;28.00;69.00;;;;;;5054563;28;20423;-69
2022/06/04 10:22:01;;;;;;;4.68;1.80;;;28.10;67.40;;;;;;5054991;28;20032;-69
2022/06/04 10:24:29;;;;;;;4.13;1.38;;;27.60;70.40;;;;;;5052845;28;20037;-69
2022/06/04 10:27:16;;;;;;;3.42;1.40;;;28.30;66.80;;;;;;5036262;28;20084;-69
2022/06/04 10:29:57;;;;;;;4.55;1.60;;;28.10;67.60;;;;;;5048325;28;20036;-68
2022/06/04 10:32:53;;;;;;;3.65;1.70;;;27.40;69.70;;;;;;5055955;28;20147;-69
2022/06/04 10:35:48;;;;;;;4.63;1.45;;;27.10;69.60;;;;;;5054829;28;20041;-69
2022/06/04 10:38:32;;;;;;;4.43;1.60;;;26.70;69.50;;;;;;5054285;28;20309;-69
2022/06/04 10:41:06;;;;;;;4.28;1.50;;;26.10;70.90;;;;;;5035991;28;20041;-69
2022/06/04 10:43:45;;;;;;;4.00;1.70;;;25.60;73.00;;;;;;5035831;28;20013;-68
2022/06/04 10:46:43;;;;;;;4.90;1.95;;;25.90;72.30;;;;;;5035907;28;20104;-68
2022/06/04 10:49:34;;;;;;;3.58;1.63;;;26.40;71.80;;;;;;5041850;28;20070;-69
2022/06/04 10:52:12;;;;;;;3.03;1.70;;;26.70;70.60;;;;;;5055297;28;20033;-69
2022/06/04 10:54:59;;;;;;;4.18;1.85;;;26.90;71.00;;;;;;5054399;28;20095;-68
2022/06/04 10:57:29;;;;;;;3.70;1.98;;;27.40;73.10;;;;;;5054196;28;20017;-69
2022/06/04 11:00:04;;;;;;;5.13;2.10;;;28.30;69.90;;;;;;5054417;28;20036;-69
2022/06/04 11:02:59;;;;;;;5.35;2.00;;;28.80;68.90;;;;;;5054762;28;20314;-69
2022/06/04 11:05:30;;;;;;;5.10;2.15;;;28.60;68.50;;;;;;5053633;28;20021;-68
2022/06/04 11:08:15;;;;;;;4.82;2.22;;;28.60;67.60;;;;;;5055146;28;20037;-69
2022/06/04 11:11:06;;;;;;;4.75;2.00;;;28.70;68.80;;;;;;5053388;28;20337;-68
2022/06/04 11:13:40;;;;;;;4.35;2.13;;;28.70;69.50;;;;;;5053557;28;20047;-68
2022/06/04 11:16:22;;;;;;;5.57;2.10;;;29.10;66.90;;;;;;5054417;28;20033;-68
2022/06/04 11:18:50;;;;;;;7.82;2.83;;;29.30;69.40;;;;;;5054509;28;20452;-68
2022/06/04 11:21:22;;;;;;;6.20;3.08;;;28.80;69.60;;;;;;5055271;28;20033;-70
2022/06/04 11:23:55;;;;;;;6.82;2.90;;;27.70;72.60;;;;;;5054503;28;20078;-70
2022/06/04 11:26:43;;;;;;;5.25;2.75;;;28.30;73.50;;;;;;5048002;28;20414;-70
2022/06/04 11:29:11;;;;;;;5.45;2.70;;;29.10;69.30;;;;;;5052942;28;20044;-70
2022/06/04 11:32:19;;;;;;;6.05;3.17;;;28.30;70.30;;;;;;5043814;28;20457;-69
2022/06/04 11:35:03;;;;;;;6.07;3.00;;;27.90;70.90;;;;;;5054146;28;20119;-69
2022/06/04 11:37:41;;;;;;;6.05;3.90;;;27.00;72.80;;;;;;5054089;28;20108;-69
2022/06/04 11:40:30;;;;;;;7.80;4.03;;;26.70;77.10;;;;;;5052823;28;20049;-69
2022/06/04 11:43:01;;;;;;;7.20;3.80;;;26.70;77.50;;;;;;5052446;28;20107;-68
2022/06/04 11:45:44;;;;;;;7.65;4.75;;;26.70;77.80;;;;;;5055038;28;20112;-69
2022/06/04 11:48:34;;;;;;;7.30;4.22;;;26.40;78.60;;;;;;5053669;28;20035;-69
2022/06/04 11:51:18;;;;;;;7.35;5.53;;;26.20;79.70;;;;;;5055088;28;20025;-69
2022/06/04 11:53:53;;;;;;;;;;;26.00;81.00;;;;;;5054246;28;20115;-68
2022/06/04 11:56:37;;;;;;;;;;;25.70;80.90;;;;;;5052609;28;19908;-68
2022/06/04 11:59:30;;;;;;;7.53;5.10;;;25.40;81.60;;;;;;5053326;28;19909;-68
2022/06/04 12:02:00;;;;;;;7.88;4.25;;;25.90;80.80;;;;;;5053513;28;20037;-68
2022/06/04 12:04:40;;;;;;;10.13;5.30;;;27.10;78.90;;;;;;5055010;28;20096;-69
2022/06/04 12:07:12;;;;;;;8.77;4.90;;;27.20;76.50;;;;;;5053680;28;20125;-68
2022/06/04 12:09:54;;;;;;;6.90;4.15;;;26.70;78.40;;;;;;5055048;28;20035;-69
2022/06/04 12:12:25;;;;;;;7.00;4.18;;;27.00;78.50;;;;;;5056336;28;20032;-69
2022/06/04 12:15:13;;;;;;;10.20;5.30;;;27.70;77.40;;;;;;5058209;28;20021;-69
2022/06/04 12:17:47;;;;;;;7.22;4.65;;;28.40;74.70;;;;;;5056868;28;20025;-68
2022/06/04 12:26:30;;;;;;;6.85;4.85;;;26.70;78.40;;;;;;5056429;28;20043;-68
2022/06/04 12:28:57;;;;;;;6.70;4.75;;;26.00;79.80;;;;;;5055859;28;20040;-68
2022/06/04 12:31:35;;;;;;;5.72;4.50;;;26.20;79.50;;;;;;5056387;28;20071;-68
2022/06/04 12:34:27;;;;;;;7.68;4.82;;;26.30;78.90;;;;;;5057630;28;20063;-69
2022/06/04 12:36:54;;;;;;;6.80;4.85;;;26.80;78.60;;;;;;5056857;28;20082;-69
2022/06/04 12:39:50;;;;;;;6.57;4.80;;;27.80;77.00;;;;;;5056926;28;20108;-69
2022/06/04 12:42:18;;;;;;;11.15;4.72;;;27.00;76.80;;;;;;5055300;28;20033;-68
2022/06/04 12:45:00;;;;;;;7.95;4.82;;;26.20;78.90;;;;;;5058074;28;20105;-68
2022/06/04 12:47:35;;;;;;;8.45;5.65;;;27.00;78.90;;;;;;5056139;28;20487;-68
2022/06/04 12:50:16;;;;;;;8.65;5.93;;;27.20;78.20;;;;;;5058027;28;20037;-68
2022/06/04 12:52:47;;;;;;;9.95;6.22;;;26.80;78.90;;;;;;5056412;28;20035;-68
2022/06/04 12:55:23;;;;;;;7.38;5.55;;;26.40;80.30;;;;;;5056551;28;20033;-68
2022/06/04 12:58:17;;;;;;;13.90;6.00;;;25.90;81.60;;;;;;5055253;28;20414;-68
2022/06/04 13:00:53;;;;;;;7.93;5.93;;;25.80;82.00;;;;;;5055280;28;20021;-68
2022/06/04 13:03:40;;;;;;;9.00;6.60;;;25.60;82.80;;;;;;5054764;28;20025;-68
2022/06/04 13:06:23;;;;;;;7.03;4.35;;;26.00;82.30;;;;;;5057158;28;20322;-68
2022/06/04 13:09:00;;;;;;;6.80;4.73;;;27.50;78.50;;;;;;5057223;28;20024;-68
2022/06/04 13:11:35;;;;;;;8.98;4.30;;;28.70;74.80;;;;;;5037522;28;20267;-68
2022/06/04 13:14:27;;;;;;;10.27;4.70;;;29.20;71.70;;;;;;5044514;28;20418;-68
2022/06/04 13:16:59;;;;;;;6.97;3.30;;;29.10;71.90;;;;;;5038570;28;20068;-68
2022/06/04 13:19:46;;;;;;;6.57;4.68;;;29.30;72.30;;;;;;5053882;28;20020;-68
2022/06/04 13:22:40;;;;;;;13.40;5.70;;;29.40;71.00;;;;;;5052841;28;20044;-69
2022/06/04 13:25:12;;;;;;;7.32;4.65;;;28.90;71.70;;;;;;5035365;28;20037;-68
2022/06/04 13:27:47;;;;;;;7.80;3.72;;;29.10;70.80;;;;;;5044227;28;20127;-68
2022/06/04 13:30:21;;;;;;;5.70;2.75;;;28.10;71.20;;;;;;5055620;28;20035;-68
2022/06/04 13:32:48;;;;;;;6.15;3.20;;;28.40;69.90;;;;;;5052663;28;20456;-68
2022/06/04 13:35:20;;;;;;;8.52;3.95;;;29.40;69.30;;;;;;5052775;28;20064;-69
2022/06/04 13:37:47;;;;;;;6.88;3.05;;;30.30;68.40;;;;;;5054546;28;20429;-69